createdAt,value
2018-12-08T00:02:11.980Z,24.07
2018-12-08T00:06:56.282Z,24.67
2018-12-08T00:11:42.449Z,24.13
2018-12-08T00:16:27.632Z,23.23
2018-12-08T00:21:12.467Z,23.13
2018-12-08T00:25:57.812Z,20.13
2018-12-08T00:30:52.884Z,18.83
2018-12-08T00:35:38.842Z,21.47
2018-12-08T00:40:23.871Z,22.47
2018-12-08T00:45:09.054Z,20.57
2018-12-08T00:49:53.196Z,19.47
2018-12-08T00:54:39.165Z,19.73
2018-12-08T01:14:32.656Z,21.17
2018-12-08T01:19:18.619Z,18.67
2018-12-08T01:24:03.866Z,18.90
2018-12-08T01:28:48.489Z,17.63
2018-12-08T01:33:34.431Z,16.80
2018-12-08T01:38:22.176Z,16.60
2018-12-08T01:43:07.336Z,18.57
2018-12-08T01:47:52.454Z,20.23
2018-12-08T01:52:37.805Z,20.83
2018-12-08T01:57:25.743Z,25.10
2018-12-08T02:02:11.001Z,21.63
2018-12-08T02:06:57.983Z,19.03
2018-12-08T02:11:43.300Z,21.33
2018-12-08T02:16:28.050Z,22.90
2018-12-08T02:21:13.787Z,22.43
2018-12-08T02:25:58.400Z,21.77
2018-12-08T02:30:44.205Z,22.07
2018-12-08T02:35:29.973Z,21.63
2018-12-08T02:40:15.417Z,25.50
2018-12-08T02:44:59.648Z,22.83
2018-12-08T02:49:45.612Z,25.57
2018-12-08T02:54:31.006Z,26.10
2018-12-08T02:59:15.481Z,25.00
2018-12-08T03:04:01.224Z,22.83
2018-12-08T03:08:45.697Z,22.70
2018-12-08T03:13:31.955Z,26.30
2018-12-08T03:18:17.511Z,25.23
2018-12-08T03:23:03.199Z,20.47
2018-12-08T03:27:49.149Z,22.67
2018-12-08T03:32:34.438Z,26.67
2018-12-08T03:37:19.261Z,21.83
2018-12-08T03:42:04.699Z,21.63
2018-12-08T03:46:49.399Z,23.93
2018-12-08T03:51:36.568Z,21.27
2018-12-08T03:56:21.452Z,20.87
2018-12-08T04:01:07.152Z,21.20
2018-12-08T04:05:51.923Z,21.97
2018-12-08T04:10:37.424Z,22.53
2018-12-08T04:15:21.954Z,23.73
2018-12-08T04:20:07.745Z,21.50
2018-12-08T04:24:52.410Z,23.60
2018-12-08T04:29:37.782Z,23.37
2018-12-08T04:34:25.617Z,21.03
2018-12-08T04:39:11.040Z,18.97
2018-12-08T04:43:56.808Z,19.03
2018-12-08T04:48:43.010Z,21.27
2018-12-08T04:53:27.892Z,20.47
2018-12-08T04:58:13.581Z,22.20
2018-12-08T05:02:58.280Z,20.67
2018-12-08T05:07:44.973Z,20.47
2018-12-08T05:12:29.201Z,21.33
2018-12-08T05:17:13.981Z,22.37
2018-12-08T05:21:59.401Z,30.23
2018-12-08T05:26:47.263Z,30.17
2018-12-08T05:31:33.366Z,22.07
2018-12-08T05:36:17.957Z,25.67
2018-12-08T05:41:03.628Z,23.47
2018-12-08T05:45:50.084Z,24.20
2018-12-08T05:50:35.732Z,22.67
2018-12-08T05:55:21.836Z,23.63
2018-12-08T06:04:50.547Z,25.07
2018-12-08T06:09:36.485Z,24.90
2018-12-08T06:14:21.919Z,24.83
2018-12-08T06:19:06.640Z,26.33
2018-12-08T06:23:52.188Z,21.63
2018-12-08T06:28:41.007Z,21.37
2018-12-08T06:33:26.144Z,22.67
2018-12-08T06:38:10.480Z,27.00
2018-12-08T06:42:56.167Z,28.80
2018-12-08T06:47:42.420Z,23.00
2018-12-08T06:52:27.007Z,23.27
2018-12-08T06:57:16.326Z,22.50
2018-12-08T07:02:02.032Z,20.23
2018-12-08T07:06:46.707Z,13.83
2018-12-08T07:11:32.689Z,14.20
2018-12-08T07:16:20.148Z,13.47
2018-12-08T07:21:06.453Z,13.50
2018-12-08T07:25:50.780Z,14.30
2018-12-08T07:30:36.114Z,15.37
2018-12-08T07:35:20.897Z,15.87
2018-12-08T07:40:06.685Z,16.03
2018-12-08T07:44:54.752Z,16.23
2018-12-08T07:49:40.121Z,18.63
2018-12-08T07:54:25.276Z,17.40
2018-12-08T07:59:10.820Z,12.90
2018-12-08T08:03:55.068Z,19.47
2018-12-08T08:08:39.294Z,16.07
2018-12-08T08:13:24.213Z,13.67
2018-12-08T08:18:09.400Z,15.17
2018-12-08T08:22:54.350Z,15.47
2018-12-08T08:27:39.622Z,14.50
2018-12-08T08:32:24.105Z,11.90
2018-12-08T08:37:09.648Z,15.57
2018-12-08T08:41:53.834Z,12.33
2018-12-08T08:46:43.517Z,10.70
2018-12-08T08:51:29.185Z,10.07
2018-12-08T08:56:14.936Z,11.43
2018-12-08T09:01:03.018Z,10.57
2018-12-08T09:05:47.508Z,13.33
2018-12-08T09:10:34.944Z,10.73
2018-12-08T09:15:23.175Z,10.87
2018-12-08T09:20:10.997Z,11.77
2018-12-08T09:24:55.521Z,11.00
2018-12-08T09:29:41.703Z,12.03
2018-12-08T09:34:29.098Z,11.80
2018-12-08T09:39:13.775Z,11.10
2018-12-08T09:43:59.102Z,10.73
2018-12-08T09:48:44.385Z,11.67
2018-12-08T09:53:28.995Z,10.67
2018-12-08T09:58:14.077Z,10.93
2018-12-08T10:03:01.160Z,10.87
2018-12-08T10:07:47.090Z,10.53
2018-12-08T10:12:32.300Z,10.33
2018-12-08T10:17:18.285Z,10.20
2018-12-08T10:22:06.793Z,9.27
2018-12-08T10:26:52.711Z,9.83
2018-12-08T10:31:38.207Z,9.47
2018-12-08T10:36:22.834Z,9.50
2018-12-08T10:41:09.387Z,9.93
2018-12-08T10:45:54.184Z,11.80
2018-12-08T10:50:39.234Z,32.73
2018-12-08T10:55:25.123Z,9.80
2018-12-08T11:00:15.461Z,20.93
2018-12-08T11:04:59.679Z,9.67
2018-12-08T11:09:43.888Z,10.17
2018-12-08T11:14:32.625Z,10.50
2018-12-08T11:19:19.072Z,9.80
2018-12-08T11:24:03.198Z,10.73
2018-12-08T11:28:47.388Z,9.87
2018-12-08T11:33:32.237Z,9.73
2018-12-08T11:38:18.099Z,10.07
2018-12-08T11:43:02.341Z,10.23
2018-12-08T11:47:46.617Z,13.43
2018-12-08T11:52:32.528Z,10.83
2018-12-08T11:57:18.174Z,11.27
2018-12-08T12:02:02.261Z,11.60
2018-12-08T12:06:46.764Z,10.73
2018-12-08T12:11:37.295Z,12.10
2018-12-08T12:16:22.304Z,12.30
2018-12-08T12:21:06.539Z,8.57
2018-12-08T12:25:53.603Z,8.67
2018-12-08T12:30:38.856Z,7.67
2018-12-08T12:35:23.000Z,7.63
2018-12-08T12:40:08.989Z,8.97
2018-12-08T12:44:54.109Z,8.27
2018-12-08T12:49:39.557Z,9.60
2018-12-08T12:54:25.529Z,8.73
2018-12-08T12:59:12.358Z,9.30
2018-12-08T13:03:57.008Z,9.90
2018-12-08T13:08:42.319Z,13.40
2018-12-08T13:13:27.592Z,12.90
2018-12-08T13:18:12.763Z,9.80
2018-12-08T13:23:01.084Z,11.70
2018-12-08T13:27:46.625Z,14.57
2018-12-08T13:32:31.846Z,10.90
2018-12-08T13:37:16.316Z,12.47
2018-12-08T13:42:01.966Z,12.13
2018-12-08T13:46:47.141Z,12.70
2018-12-08T13:51:32.142Z,11.90
2018-12-08T13:56:17.925Z,12.13
2018-12-08T14:01:02.428Z,11.43
2018-12-08T14:05:52.273Z,12.90
2018-12-08T14:10:38.003Z,15.63
2018-12-08T14:15:23.445Z,11.00
2018-12-08T14:20:19.450Z,11.13
2018-12-08T14:25:03.670Z,19.33
2018-12-08T14:29:48.898Z,25.70
2018-12-08T14:34:34.889Z,23.57
2018-12-08T14:39:19.152Z,30.63
2018-12-08T14:44:04.074Z,42.33
2018-12-08T14:48:49.606Z,48.30
2018-12-08T14:53:35.492Z,42.27
2018-12-08T14:58:20.673Z,34.07
2018-12-08T15:03:10.944Z,26.23
2018-12-08T15:07:55.615Z,16.93
2018-12-08T15:12:41.570Z,22.93
2018-12-08T15:17:26.253Z,30.30
2018-12-08T15:22:13.021Z,16.00
2018-12-08T15:26:57.196Z,13.90
2018-12-08T15:31:42.359Z,31.73
2018-12-08T15:36:27.553Z,29.20
2018-12-08T15:41:11.728Z,28.67
2018-12-08T15:45:57.925Z,44.73
2018-12-08T15:50:44.601Z,23.87
2018-12-08T15:55:29.584Z,32.37
2018-12-08T16:00:15.863Z,32.13
2018-12-08T16:05:00.730Z,26.73
2018-12-08T16:09:47.423Z,18.83
2018-12-08T16:14:32.627Z,16.50
2018-12-08T16:19:18.276Z,20.43
2018-12-08T16:24:02.643Z,19.17
2018-12-08T16:28:48.969Z,29.50
2018-12-08T16:33:36.193Z,28.23
2018-12-08T16:38:22.157Z,31.30
2018-12-08T16:43:07.012Z,18.33
2018-12-08T16:47:52.475Z,18.97
2018-12-08T16:52:38.398Z,17.40
2018-12-08T16:57:24.361Z,16.27
2018-12-08T17:02:08.549Z,31.70
2018-12-08T17:06:53.639Z,44.57
2018-12-08T17:11:38.862Z,35.77
2018-12-08T17:16:23.179Z,42.00
2018-12-08T17:21:09.348Z,25.10
2018-12-08T17:26:00.937Z,19.23
2018-12-08T17:30:45.348Z,17.17
2018-12-08T17:35:31.486Z,30.93
2018-12-08T17:40:15.950Z,36.37
2018-12-08T17:45:02.666Z,27.53
2018-12-08T17:49:47.587Z,26.57
2018-12-08T17:54:33.594Z,38.60
2018-12-08T17:59:19.855Z,39.67
2018-12-08T18:04:04.647Z,34.67
2018-12-08T18:08:50.293Z,33.83
2018-12-08T18:13:35.545Z,29.67
2018-12-08T18:18:20.764Z,26.43
2018-12-08T18:23:06.167Z,22.37
2018-12-08T18:27:51.716Z,18.63
2018-12-08T18:32:36.383Z,16.93
2018-12-08T18:37:21.644Z,22.97
2018-12-08T18:42:08.629Z,16.17
2018-12-08T18:46:53.889Z,10.03
2018-12-08T18:51:42.485Z,16.50
2018-12-08T18:56:27.766Z,20.50
2018-12-08T19:01:32.295Z,22.30
2018-12-08T19:06:18.473Z,24.97
2018-12-08T19:11:03.150Z,29.40
2018-12-08T19:15:55.866Z,34.57
2018-12-08T19:20:41.487Z,52.07
2018-12-08T19:25:26.828Z,50.37
2018-12-08T19:30:15.515Z,35.80
2018-12-08T19:35:01.054Z,26.30
2018-12-08T19:39:45.477Z,27.13
2018-12-08T19:44:31.650Z,30.33
2018-12-08T19:49:18.191Z,29.47
2018-12-08T19:54:03.750Z,24.50
2018-12-08T19:58:48.279Z,19.07
2018-12-08T20:03:33.717Z,22.33
2018-12-08T20:08:19.993Z,19.37
2018-12-08T20:13:06.713Z,14.17
2018-12-08T20:17:51.021Z,16.33
2018-12-08T20:22:36.536Z,17.50
2018-12-08T20:27:21.483Z,18.77
2018-12-08T20:32:07.842Z,19.17
2018-12-08T20:36:53.046Z,20.73
2018-12-08T20:41:43.473Z,18.80
2018-12-08T20:46:28.686Z,25.93
2018-12-08T20:51:13.881Z,21.57
2018-12-08T20:55:59.193Z,16.33
2018-12-08T21:00:44.447Z,18.93
2018-12-08T21:05:34.095Z,27.77
2018-12-08T21:10:18.422Z,31.33
2018-12-08T21:15:04.049Z,29.93
2018-12-08T21:19:48.120Z,28.40
2018-12-08T21:24:32.731Z,18.00
2018-12-08T21:29:18.317Z,14.97
2018-12-08T21:34:04.017Z,19.73
2018-12-08T21:38:53.154Z,18.10
2018-12-08T21:43:38.325Z,19.57
2018-12-08T21:48:23.557Z,26.20
2018-12-08T21:53:08.951Z,23.03
2018-12-08T21:57:56.704Z,23.90
2018-12-08T22:02:41.384Z,25.87
2018-12-08T22:07:27.312Z,27.40
2018-12-08T22:12:13.845Z,24.97
2018-12-08T22:16:58.732Z,22.30
2018-12-08T22:21:44.478Z,25.23
2018-12-08T22:26:29.317Z,24.00
2018-12-08T22:31:14.415Z,22.80
2018-12-08T22:35:58.679Z,23.23
2018-12-08T22:40:47.463Z,24.10
2018-12-08T22:45:31.907Z,22.03
2018-12-08T22:50:17.651Z,20.33
2018-12-08T22:55:04.208Z,20.33
2018-12-08T22:59:48.485Z,19.20
2018-12-08T23:04:34.663Z,20.20
2018-12-08T23:09:19.853Z,25.93
2018-12-08T23:14:06.064Z,21.03
2018-12-08T23:18:51.345Z,21.93
2018-12-08T23:23:36.684Z,27.23
2018-12-08T23:28:20.943Z,19.43
2018-12-08T23:33:05.282Z,21.17
2018-12-08T23:37:51.006Z,23.17
2018-12-08T23:42:37.533Z,22.27
2018-12-08T23:47:21.830Z,21.83
2018-12-08T23:52:11.423Z,19.73
2018-12-08T23:56:57.137Z,19.67
